KNGP/NGP METAR and TAF weather

Enter ICAO airport designator
Station Type Date Time Source
KNGP METAR 2019/10/23 06:56 UTC NOAA

KNGP 230656Z AUTO 12012KT 10SM CLR 23/17 A3007 RMK AO2 SLP183 T02330167


Station Type Date Time Source
KNGP Decoded METAR 2019/10/23 06:56 UTC NOAA

CORPUS CHRISTI NAVAL AIR STN, TX, United States (KNGP) 27-41N 097-17W
Oct 23, 2019 - 02:56 AM EDT / 2019.10.23 0656 UTC
Wind: from the ESE (120 degrees) at 14 MPH (12 KT):0
Visibility: 10 mile(s):0
Sky conditions: clear
Temperature: 73.9 F (23.3 C)
Dew Point: 62.1 F (16.7 C)
Relative Humidity: 66%
Pressure (altimeter): 30.07 in. Hg (1018 hPa)
ob: KNGP 230656Z AUTO 12012KT 10SM CLR 23/17 A3007 RMK AO2 SLP183 T02330167
cycle: 7

Station Type Date Time Source
KNGP TAF 2019/10/23 07:06 UTC NOAA

TAF KNGP 2307/2407 12012KT 9999 FEW250 QNH3000INS
BECMG 2312/2314 13012G16KT 9999 FEW030 FEW250 QNH3002INS
BECMG 2316/2318 13015G22KT 9999 FEW035 SCT250 QNH2992INS
FM240600 14012G16KT 9999 SCT050 SCT250 QNH2994INS AUTOMATED SENSOR METWATCH 2307 TIL 2311 T21/2310Z T30/2319Z FN00211

Example: see airport list